createdAt,value
2023-01-03T00:02:10.890Z,5.20
2023-01-03T00:04:47.375Z,5.10
2023-01-03T00:07:33.624Z,5.10
2023-01-03T00:10:02.225Z,5.10
2023-01-03T00:12:32.267Z,5.10
2023-01-03T00:15:00.867Z,5.10
2023-01-03T00:17:29.115Z,5.10
2023-01-03T00:19:57.088Z,5.10
2023-01-03T00:22:25.090Z,5.10
2023-01-03T00:24:56.103Z,5.10
2023-01-03T00:27:24.317Z,5.10
2023-01-03T00:29:53.642Z,5.10
2023-01-03T00:32:21.627Z,5.10
2023-01-03T00:34:51.934Z,5.10
2023-01-03T00:37:19.964Z,5.00
2023-01-03T00:39:47.953Z,5.10
2023-01-03T00:42:15.989Z,5.00
2023-01-03T00:44:43.946Z,5.10
2023-01-03T00:47:15.825Z,5.00
2023-01-03T00:49:43.816Z,5.00
2023-01-03T00:52:11.831Z,5.00
2023-01-03T00:54:39.794Z,5.00
2023-01-03T00:57:07.784Z,5.00
2023-01-03T00:59:35.797Z,5.00
2023-01-03T01:02:04.983Z,4.90
2023-01-03T01:04:34.543Z,4.90
2023-01-03T01:07:03.513Z,4.80
2023-01-03T01:09:32.615Z,4.80
2023-01-03T01:12:00.610Z,4.80
2023-01-03T01:14:30.083Z,4.80
2023-01-03T01:16:59.589Z,4.80
2023-01-03T01:19:28.773Z,4.70
2023-01-03T01:21:58.356Z,4.70
2023-01-03T01:24:26.796Z,4.70
2023-01-03T01:26:54.958Z,4.70
2023-01-03T01:29:23.289Z,4.70
2023-01-03T01:31:51.305Z,4.70
2023-01-03T01:34:19.268Z,4.60
2023-01-03T01:36:47.695Z,4.60
2023-01-03T01:39:20.654Z,4.60
2023-01-03T01:42:09.047Z,4.60
2023-01-03T01:44:45.709Z,4.60
2023-01-03T01:47:14.987Z,4.60
2023-01-03T01:49:43.683Z,4.60
2023-01-03T01:52:12.316Z,4.70
2023-01-03T01:54:41.826Z,4.70
2023-01-03T01:57:13.244Z,4.70
2023-01-03T01:59:41.331Z,4.70
2023-01-03T02:02:10.744Z,4.70
2023-01-03T02:04:39.601Z,4.70
2023-01-03T02:07:07.959Z,4.70
2023-01-03T02:09:37.524Z,4.70
2023-01-03T02:12:32.305Z,4.70
2023-01-03T02:15:07.415Z,4.70
2023-01-03T02:17:38.841Z,4.70
2023-01-03T02:20:20.904Z,4.60
2023-01-03T02:23:01.360Z,4.60
2023-01-03T02:25:53.371Z,4.60
2023-01-03T02:28:46.478Z,4.60
2023-01-03T02:31:25.139Z,4.60
2023-01-03T02:33:58.621Z,4.60
2023-01-03T02:36:33.286Z,4.60
2023-01-03T02:39:02.535Z,4.60
2023-01-03T02:41:36.773Z,4.60
2023-01-03T02:44:07.721Z,4.60
2023-01-03T02:46:43.528Z,4.60
2023-01-03T02:49:14.986Z,4.50
2023-01-03T02:51:45.344Z,4.50
2023-01-03T02:54:15.697Z,4.50
2023-01-03T02:56:45.475Z,4.50
2023-01-03T02:59:16.916Z,4.50
2023-01-03T03:01:50.880Z,4.50
2023-01-03T03:04:19.659Z,4.50
2023-01-03T03:06:52.010Z,4.40
2023-01-03T03:09:21.154Z,4.40
2023-01-03T03:12:07.404Z,4.40
2023-01-03T03:14:38.285Z,4.40
2023-01-03T03:17:10.111Z,4.40
2023-01-03T03:19:55.588Z,4.30
2023-01-03T03:22:44.494Z,4.20
2023-01-03T03:25:14.062Z,4.30
2023-01-03T03:28:02.718Z,4.30
2023-01-03T03:30:33.027Z,4.30
2023-01-03T03:33:06.209Z,4.30
2023-01-03T03:35:40.649Z,4.20
2023-01-03T03:38:10.005Z,4.20
2023-01-03T03:40:59.538Z,4.20
2023-01-03T03:43:47.664Z,4.20
2023-01-03T03:46:21.684Z,4.20
2023-01-03T03:49:14.486Z,4.10
2023-01-03T03:51:44.416Z,4.10
2023-01-03T03:54:14.191Z,4.10
2023-01-03T03:56:43.909Z,4.10
2023-01-03T03:59:12.167Z,4.10
2023-01-03T04:01:40.946Z,4.10
2023-01-03T04:04:14.753Z,4.10
2023-01-03T04:06:44.890Z,4.10
2023-01-03T04:09:13.187Z,4.00
2023-01-03T04:11:41.240Z,4.00
2023-01-03T04:14:09.237Z,4.10
2023-01-03T04:16:40.985Z,4.00
2023-01-03T04:19:10.506Z,4.00
2023-01-03T04:21:38.494Z,4.00
2023-01-03T04:24:06.750Z,4.00
2023-01-03T04:26:34.895Z,4.00
2023-01-03T04:29:02.888Z,4.00
2023-01-03T04:31:30.990Z,4.00
2023-01-03T04:33:59.023Z,3.90
2023-01-03T04:36:28.359Z,3.90
2023-01-03T04:38:56.355Z,3.90
2023-01-03T04:41:24.369Z,3.90
2023-01-03T04:44:04.393Z,3.90
2023-01-03T04:46:33.369Z,3.90
2023-01-03T04:49:01.427Z,3.80
2023-01-03T04:51:30.944Z,3.80
2023-01-03T04:53:59.035Z,3.80
2023-01-03T04:56:27.879Z,3.80
2023-01-03T04:58:56.445Z,3.70
2023-01-03T05:01:25.128Z,3.70
2023-01-03T05:03:58.039Z,3.70
2023-01-03T05:06:26.043Z,3.70
2023-01-03T05:08:55.387Z,3.70
2023-01-03T05:11:23.418Z,3.60
2023-01-03T05:13:51.471Z,3.60
2023-01-03T05:16:19.607Z,3.60
2023-01-03T05:18:53.288Z,3.60
2023-01-03T05:21:39.704Z,3.60
2023-01-03T05:24:27.981Z,3.60
2023-01-03T05:26:59.151Z,3.50
2023-01-03T05:29:28.169Z,3.50
2023-01-03T05:31:56.351Z,3.50
2023-01-03T05:34:24.365Z,3.50
2023-01-03T05:36:52.368Z,3.40
2023-01-03T05:39:21.708Z,3.40
2023-01-03T05:42:01.356Z,3.40
2023-01-03T05:44:30.244Z,3.30
2023-01-03T05:46:58.423Z,3.30
2023-01-03T05:49:26.627Z,3.30
2023-01-03T05:51:55.866Z,3.30
2023-01-03T05:54:25.243Z,3.20
2023-01-03T05:56:53.240Z,3.20
2023-01-03T05:59:22.606Z,3.20
2023-01-03T06:01:50.878Z,3.20
2023-01-03T06:04:19.116Z,3.20
2023-01-03T06:06:47.219Z,3.20
2023-01-03T06:09:15.267Z,3.20
2023-01-03T06:11:44.624Z,3.20
2023-01-03T06:14:12.589Z,3.20
2023-01-03T06:17:12.661Z,3.10
2023-01-03T06:19:40.709Z,3.10
2023-01-03T06:22:11.257Z,3.10
2023-01-03T06:24:39.413Z,3.10
2023-01-03T06:27:08.806Z,3.10
2023-01-03T06:29:36.764Z,3.10
2023-01-03T06:32:09.593Z,3.10
2023-01-03T06:34:38.045Z,3.10
2023-01-03T06:37:06.096Z,3.10
2023-01-03T06:39:36.943Z,3.10
2023-01-03T06:42:19.217Z,3.20
2023-01-03T06:45:09.669Z,3.20
2023-01-03T06:47:56.095Z,3.20
2023-01-03T06:50:53.614Z,3.20
2023-01-03T06:53:22.397Z,3.20
2023-01-03T06:55:56.768Z,3.20
2023-01-03T06:58:25.468Z,3.20
2023-01-03T07:00:55.929Z,3.20
2023-01-03T07:03:24.243Z,3.20
2023-01-03T07:05:52.560Z,3.20
2023-01-03T07:08:20.732Z,3.20
2023-01-03T07:10:48.788Z,3.20
2023-01-03T07:13:34.166Z,3.20
2023-01-03T07:16:03.561Z,3.20
2023-01-03T07:18:35.375Z,3.20
2023-01-03T07:21:06.333Z,3.20
2023-01-03T07:23:34.485Z,3.20
2023-01-03T07:26:02.473Z,3.40
2023-01-03T07:28:30.532Z,3.30
2023-01-03T07:31:01.150Z,3.30
2023-01-03T07:33:30.787Z,3.30
2023-01-03T07:36:03.632Z,3.30
2023-01-03T07:38:35.692Z,3.30
2023-01-03T07:41:04.173Z,3.30
2023-01-03T07:43:37.160Z,3.30
2023-01-03T07:46:08.975Z,3.30
2023-01-03T07:48:38.457Z,3.30
2023-01-03T07:51:06.953Z,3.30
2023-01-03T07:53:35.351Z,3.30
2023-01-03T07:56:09.152Z,3.30
2023-01-03T07:58:39.218Z,3.30
2023-01-03T08:01:07.983Z,3.30
2023-01-03T08:03:36.624Z,3.30
2023-01-03T08:06:07.040Z,3.20
2023-01-03T08:08:35.151Z,3.20
2023-01-03T08:11:21.207Z,3.20
2023-01-03T08:13:50.130Z,3.20
2023-01-03T08:16:18.971Z,3.20
2023-01-03T08:18:47.084Z,3.20
2023-01-03T08:21:16.885Z,3.20
2023-01-03T08:23:46.289Z,3.20
2023-01-03T08:26:17.139Z,3.20
2023-01-03T08:28:45.867Z,3.20
2023-01-03T08:31:16.242Z,3.20
2023-01-03T08:33:47.278Z,3.20
2023-01-03T08:36:16.808Z,3.10
2023-01-03T08:38:45.972Z,3.10
2023-01-03T08:41:17.801Z,3.10
2023-01-03T08:43:47.836Z,3.10
2023-01-03T08:46:17.481Z,3.10
2023-01-03T08:48:45.916Z,3.10
2023-01-03T08:51:14.153Z,3.10
2023-01-03T08:53:43.515Z,3.00
2023-01-03T08:56:11.553Z,3.00
2023-01-03T08:58:39.527Z,3.00
2023-01-03T09:01:08.382Z,3.00
2023-01-03T09:03:36.790Z,3.00
2023-01-03T09:06:05.638Z,3.00
2023-01-03T09:08:34.414Z,2.90
2023-01-03T09:11:07.070Z,2.90
2023-01-03T09:13:35.364Z,2.90
2023-01-03T09:16:03.759Z,2.90
2023-01-03T09:18:31.948Z,2.90
2023-01-03T09:20:59.958Z,2.90
2023-01-03T09:23:29.845Z,2.90
2023-01-03T09:25:58.063Z,2.90
2023-01-03T09:28:30.536Z,2.90
2023-01-03T09:30:59.044Z,2.90
2023-01-03T09:33:27.156Z,3.00
2023-01-03T09:35:55.330Z,3.00
2023-01-03T09:38:23.562Z,3.00
2023-01-03T09:40:58.120Z,3.00
2023-01-03T09:43:26.705Z,3.10
2023-01-03T09:45:59.868Z,3.10
2023-01-03T09:48:33.915Z,3.10
2023-01-03T09:51:22.652Z,3.10
2023-01-03T09:54:08.095Z,3.10
2023-01-03T09:56:53.680Z,3.10
2023-01-03T09:59:42.212Z,3.10
2023-01-03T10:02:37.451Z,3.10
2023-01-03T10:05:10.786Z,3.10
2023-01-03T10:07:46.467Z,3.10
2023-01-03T10:10:18.351Z,3.10
2023-01-03T10:12:56.529Z,3.20
2023-01-03T10:15:28.718Z,3.20
2023-01-03T10:18:08.399Z,3.20
2023-01-03T10:20:42.205Z,3.20
2023-01-03T10:23:11.330Z,3.20
2023-01-03T10:25:40.299Z,3.30
2023-01-03T10:28:13.080Z,3.30
2023-01-03T10:30:57.411Z,3.30
2023-01-03T10:33:33.331Z,3.40
2023-01-03T10:36:02.967Z,3.40
2023-01-03T10:38:38.491Z,3.40
2023-01-03T10:41:16.487Z,3.50
2023-01-03T10:43:46.531Z,3.50
2023-01-03T10:46:15.844Z,3.60
2023-01-03T10:49:25.380Z,3.60
2023-01-03T10:51:42.469Z,3.70
2023-01-03T10:54:16.976Z,3.80
2023-01-03T10:56:45.516Z,3.80
2023-01-03T10:59:17.056Z,3.90
2023-01-03T11:01:57.101Z,3.90
2023-01-03T11:04:26.793Z,4.00
2023-01-03T11:07:05.603Z,4.00
2023-01-03T11:09:47.037Z,4.10
2023-01-03T11:12:20.896Z,4.10
2023-01-03T11:14:52.701Z,4.10
2023-01-03T11:17:21.729Z,4.20
2023-01-03T11:19:51.552Z,4.20
2023-01-03T11:22:28.779Z,4.30
2023-01-03T11:25:13.148Z,4.30
2023-01-03T11:28:01.889Z,4.40
2023-01-03T11:30:34.598Z,4.40
2023-01-03T11:33:09.891Z,4.40
2023-01-03T11:35:48.543Z,4.50
2023-01-03T11:38:24.147Z,4.60
2023-01-03T11:40:56.729Z,4.60
2023-01-03T11:43:32.909Z,4.60
2023-01-03T11:46:10.766Z,4.70
2023-01-03T11:48:56.506Z,4.70
2023-01-03T11:51:29.821Z,4.70
2023-01-03T11:54:04.002Z,4.80
2023-01-03T11:56:35.039Z,4.80
2023-01-03T11:59:26.862Z,4.90
2023-01-03T12:02:23.086Z,5.00
2023-01-03T12:04:56.403Z,5.00
2023-01-03T12:07:47.571Z,5.00
2023-01-03T12:10:18.544Z,5.10
2023-01-03T12:13:00.104Z,5.10
2023-01-03T12:15:34.669Z,5.20
2023-01-03T12:18:04.663Z,5.20
2023-01-03T12:20:36.685Z,5.20
2023-01-03T12:23:09.904Z,5.20
2023-01-03T12:25:39.022Z,5.20
2023-01-03T12:28:13.733Z,5.30
2023-01-03T12:30:45.522Z,5.30
2023-01-03T12:33:21.346Z,5.40
2023-01-03T12:35:52.178Z,5.40
2023-01-03T12:38:26.139Z,5.40
2023-01-03T12:40:56.673Z,5.50
2023-01-03T12:43:30.580Z,5.50
2023-01-03T12:46:05.628Z,5.60
2023-01-03T12:48:41.314Z,5.80
2023-01-03T12:51:09.470Z,6.10
2023-01-03T12:53:42.358Z,6.30
2023-01-03T12:56:29.072Z,6.30
2023-01-03T12:59:02.265Z,6.40
2023-01-03T13:01:36.440Z,6.40
2023-01-03T13:04:09.535Z,6.40
2023-01-03T13:06:41.096Z,6.40
2023-01-03T13:09:17.328Z,6.40
2023-01-03T13:11:49.386Z,6.40
2023-01-03T13:14:25.164Z,6.40
2023-01-03T13:16:53.918Z,6.40
2023-01-03T13:19:40.422Z,6.40
2023-01-03T13:22:20.591Z,6.40
2023-01-03T13:24:53.121Z,6.40
2023-01-03T13:27:37.959Z,6.30
2023-01-03T13:30:19.818Z,6.30
2023-01-03T13:32:49.415Z,6.30
2023-01-03T13:35:29.456Z,6.30
2023-01-03T13:38:01.150Z,6.30
2023-01-03T13:41:07.537Z,6.30
2023-01-03T13:43:20.071Z,6.30
2023-01-03T13:45:52.379Z,6.30
2023-01-03T13:48:23.000Z,6.30
2023-01-03T13:51:04.887Z,6.30
2023-01-03T13:53:36.642Z,6.40
2023-01-03T13:56:19.672Z,6.30
2023-01-03T13:58:50.293Z,6.40
2023-01-03T14:01:24.148Z,6.40
2023-01-03T14:04:01.551Z,6.40
2023-01-03T14:06:41.883Z,6.40
2023-01-03T14:09:20.634Z,6.40
2023-01-03T14:12:04.653Z,6.40
2023-01-03T14:14:35.907Z,6.50
2023-01-03T14:17:04.591Z,6.50
2023-01-03T14:19:34.832Z,6.50
2023-01-03T14:22:26.846Z,6.50
2023-01-03T14:24:55.086Z,6.50
2023-01-03T14:27:24.410Z,6.50
2023-01-03T14:29:55.398Z,6.50
2023-01-03T14:32:28.888Z,6.50
2023-01-03T14:35:00.317Z,6.60
2023-01-03T14:37:28.754Z,6.60
2023-01-03T14:39:57.332Z,6.60
2023-01-03T14:42:26.010Z,6.60
2023-01-03T14:44:57.673Z,6.60
2023-01-03T14:47:29.924Z,6.60
2023-01-03T14:49:57.904Z,6.60
2023-01-03T14:52:29.570Z,6.60
2023-01-03T14:55:04.533Z,6.60
2023-01-03T14:57:33.836Z,6.60
2023-01-03T15:00:03.587Z,6.60
2023-01-03T15:02:35.337Z,6.70
2023-01-03T15:05:03.533Z,6.70
2023-01-03T15:07:32.919Z,6.70
2023-01-03T15:10:14.914Z,6.70
2023-01-03T15:12:46.491Z,6.70
2023-01-03T15:15:19.885Z,6.70
2023-01-03T15:17:48.769Z,6.70
2023-01-03T15:20:18.764Z,6.70
2023-01-03T15:22:46.876Z,6.80
2023-01-03T15:25:19.510Z,6.80
2023-01-03T15:27:48.347Z,6.80
2023-01-03T15:30:23.563Z,6.80
2023-01-03T15:32:55.798Z,6.80
2023-01-03T15:35:24.433Z,6.80
2023-01-03T15:37:55.583Z,6.80
2023-01-03T15:40:24.324Z,6.80
2023-01-03T15:43:10.096Z,6.80
2023-01-03T15:45:40.823Z,6.80
2023-01-03T15:48:14.093Z,6.80
2023-01-03T15:50:44.733Z,6.80
2023-01-03T15:53:22.736Z,6.80
2023-01-03T15:55:51.262Z,6.80
2023-01-03T15:58:19.302Z,6.80
2023-01-03T16:00:49.397Z,6.80
2023-01-03T16:03:18.613Z,6.80
2023-01-03T16:05:46.872Z,6.80
2023-01-03T16:08:21.786Z,6.80
2023-01-03T16:10:51.338Z,6.80
2023-01-03T16:13:19.805Z,6.80
2023-01-03T16:15:49.254Z,6.80
2023-01-03T16:18:18.714Z,6.80
2023-01-03T16:20:46.713Z,6.80
2023-01-03T16:23:22.609Z,6.80
2023-01-03T16:25:50.679Z,6.80
2023-01-03T16:28:18.655Z,6.90
2023-01-03T16:30:46.850Z,6.80
2023-01-03T16:33:19.715Z,6.80
2023-01-03T16:35:48.401Z,6.80
2023-01-03T16:38:16.511Z,6.90
2023-01-03T16:40:48.204Z,6.90
2023-01-03T16:43:16.427Z,6.90
2023-01-03T16:45:47.419Z,6.90
2023-01-03T16:48:17.479Z,6.90
2023-01-03T16:50:47.399Z,6.90
2023-01-03T16:53:23.783Z,6.90
2023-01-03T16:55:54.623Z,6.90
2023-01-03T16:58:24.063Z,6.90
2023-01-03T17:00:52.521Z,6.90
2023-01-03T17:03:20.846Z,6.90
2023-01-03T17:05:51.176Z,6.90
2023-01-03T17:08:22.953Z,6.90
2023-01-03T17:10:52.167Z,6.90
2023-01-03T17:13:26.253Z,6.90
2023-01-03T17:15:54.606Z,6.90
2023-01-03T17:18:23.515Z,6.90
2023-01-03T17:20:55.010Z,6.90
2023-01-03T17:23:23.405Z,6.90
2023-01-03T17:25:53.036Z,6.90
2023-01-03T17:28:21.419Z,6.90
2023-01-03T17:30:51.369Z,6.80
2023-01-03T17:33:19.874Z,6.80
2023-01-03T17:35:48.015Z,6.80
2023-01-03T17:38:26.375Z,6.80
2023-01-03T17:40:55.336Z,6.80
2023-01-03T17:43:24.177Z,6.80
2023-01-03T17:46:22.901Z,6.80
2023-01-03T17:49:09.066Z,6.80
2023-01-03T17:51:37.180Z,6.80
2023-01-03T17:54:06.680Z,6.80
2023-01-03T17:56:34.854Z,6.70
2023-01-03T17:59:04.771Z,6.70
2023-01-03T18:01:34.131Z,6.70
2023-01-03T18:04:02.384Z,6.70
2023-01-03T18:06:30.668Z,6.70
2023-01-03T18:08:59.460Z,6.70
2023-01-03T18:11:30.376Z,6.70
2023-01-03T18:13:58.375Z,6.60
2023-01-03T18:16:26.542Z,6.60
2023-01-03T18:18:54.607Z,6.60
2023-01-03T18:21:24.035Z,6.60
2023-01-03T18:23:54.436Z,6.60
2023-01-03T18:26:22.739Z,6.60
2023-01-03T18:28:52.109Z,6.60
2023-01-03T18:31:20.423Z,6.60
2023-01-03T18:33:48.455Z,6.60
2023-01-03T18:36:23.315Z,6.60
2023-01-03T18:38:51.495Z,6.60
2023-01-03T18:41:21.438Z,6.60
2023-01-03T18:43:49.514Z,6.60
2023-01-03T18:46:19.326Z,6.60
2023-01-03T18:48:47.431Z,6.60
2023-01-03T18:51:16.120Z,6.60
2023-01-03T18:53:45.246Z,6.60
2023-01-03T18:56:23.952Z,6.60
2023-01-03T18:58:59.821Z,6.60
2023-01-03T19:01:31.644Z,6.60
2023-01-03T19:04:00.119Z,6.60
2023-01-03T19:06:30.684Z,6.50
2023-01-03T19:09:00.268Z,6.50
2023-01-03T19:11:30.086Z,6.50
2023-01-03T19:14:00.947Z,6.60
2023-01-03T19:16:30.094Z,6.50
2023-01-03T19:19:00.549Z,6.50
2023-01-03T19:21:36.609Z,6.50
2023-01-03T19:24:05.409Z,6.50
2023-01-03T19:26:35.366Z,6.50
2023-01-03T19:29:04.995Z,6.50
2023-01-03T19:31:36.750Z,6.50
2023-01-03T19:34:06.947Z,6.50
2023-01-03T19:36:34.933Z,6.50
2023-01-03T19:39:04.286Z,6.50
2023-01-03T19:41:52.531Z,6.50
2023-01-03T19:44:25.974Z,6.60
2023-01-03T19:46:54.070Z,6.50
2023-01-03T19:49:23.897Z,6.50
2023-01-03T19:51:51.940Z,6.50
2023-01-03T19:54:20.058Z,6.50
2023-01-03T19:56:48.312Z,6.50
2023-01-03T19:59:22.864Z,6.50
2023-01-03T20:02:23.446Z,6.50
2023-01-03T20:04:40.435Z,6.50
2023-01-03T20:07:13.974Z,6.50
2023-01-03T20:09:44.396Z,6.50
2023-01-03T20:12:14.633Z,6.50
2023-01-03T20:14:44.222Z,6.50
2023-01-03T20:17:20.572Z,6.60
2023-01-03T20:19:50.156Z,6.50
2023-01-03T20:22:37.712Z,6.90
2023-01-03T20:25:10.136Z,6.60
2023-01-03T20:27:44.312Z,6.60
2023-01-03T20:30:15.949Z,6.60
2023-01-03T20:32:44.191Z,6.60
2023-01-03T20:38:03.828Z,6.60
2023-01-03T20:40:31.876Z,6.60
2023-01-03T20:43:02.305Z,6.60
2023-01-03T20:45:31.073Z,6.60
2023-01-03T20:48:00.260Z,6.60
2023-01-03T20:50:30.187Z,6.60
2023-01-03T20:52:58.445Z,6.60
2023-01-03T20:55:27.076Z,6.60
2023-01-03T20:57:55.108Z,6.60
2023-01-03T21:00:25.201Z,6.60
2023-01-03T21:02:53.863Z,6.60
2023-01-03T21:05:22.309Z,6.60
2023-01-03T21:08:09.291Z,6.60
2023-01-03T21:10:38.337Z,6.60
2023-01-03T21:13:06.548Z,6.60
2023-01-03T21:15:34.814Z,6.60
2023-01-03T21:18:03.205Z,6.60
2023-01-03T21:20:32.036Z,6.60
2023-01-03T21:23:01.486Z,6.60
2023-01-03T21:25:31.415Z,6.60
2023-01-03T21:27:59.922Z,6.60
2023-01-03T21:30:28.608Z,6.70
2023-01-03T21:32:56.696Z,6.60
2023-01-03T21:35:25.378Z,6.60
2023-01-03T21:37:54.349Z,6.70
2023-01-03T21:40:24.867Z,6.70
2023-01-03T21:43:05.044Z,6.70
2023-01-03T21:45:35.246Z,6.70
2023-01-03T21:48:04.260Z,6.70
2023-01-03T21:50:36.202Z,6.70
2023-01-03T21:53:04.262Z,6.70
2023-01-03T21:55:34.047Z,6.70
2023-01-03T21:58:04.603Z,6.70
2023-01-03T22:00:32.587Z,6.70
2023-01-03T22:03:18.091Z,6.70
2023-01-03T22:05:46.140Z,6.70
2023-01-03T22:08:14.143Z,6.70
2023-01-03T22:10:43.526Z,6.70
2023-01-03T22:13:16.010Z,6.70
2023-01-03T22:15:44.045Z,6.80
2023-01-03T22:18:13.203Z,6.70
2023-01-03T22:20:41.246Z,6.80
2023-01-03T22:23:09.887Z,6.70
2023-01-03T22:25:37.846Z,6.70
2023-01-03T22:28:07.220Z,6.80
2023-01-03T22:30:35.291Z,6.80
2023-01-03T22:33:03.312Z,6.70
2023-01-03T22:35:31.271Z,6.80
2023-01-03T22:37:59.342Z,6.80
2023-01-03T22:40:27.342Z,6.80
2023-01-03T22:42:55.618Z,6.80
2023-01-03T22:45:24.986Z,6.80
2023-01-03T22:47:53.005Z,6.80
2023-01-03T22:50:21.098Z,6.80
2023-01-03T22:52:49.148Z,6.90
2023-01-03T22:55:17.206Z,6.90
2023-01-03T22:57:45.170Z,6.90
2023-01-03T23:00:13.689Z,6.90
2023-01-03T23:02:43.157Z,6.90
2023-01-03T23:05:11.261Z,6.90
2023-01-03T23:07:44.946Z,6.90
2023-01-03T23:10:13.117Z,6.90
2023-01-03T23:12:58.404Z,6.90
2023-01-03T23:15:27.170Z,6.90
2023-01-03T23:17:59.952Z,6.90
2023-01-03T23:20:29.304Z,6.90
2023-01-03T23:23:00.244Z,6.90
2023-01-03T23:25:28.524Z,6.90
2023-01-03T23:27:56.522Z,6.90
2023-01-03T23:30:24.548Z,6.90
2023-01-03T23:32:52.588Z,6.90
2023-01-03T23:35:22.087Z,6.90
2023-01-03T23:37:50.065Z,6.90
2023-01-03T23:40:19.872Z,6.90
2023-01-03T23:42:48.042Z,6.90
2023-01-03T23:45:18.729Z,6.90
2023-01-03T23:47:46.739Z,6.90
2023-01-03T23:50:14.718Z,6.90
2023-01-03T23:52:44.064Z,6.90
2023-01-03T23:55:12.917Z,6.90
2023-01-03T23:57:41.170Z,6.90
